Terminal Aerodrome Forecast
Issued by NWS

Home | Current Version | Previous Version | Text Only | Print | Product List | Glossary On
Versions: 1 2 3 4 5 6 7 8 9 10 11 12
467
FTUS43 KPAH 210520
TAFCGI
TAF
KCGI 210520Z 2106/2206 00000KT P6SM SCT250
     FM210900 00000KT 5SM BR FEW200
     FM211300 21006KT P6SM SCT050
     FM220100 19004KT P6SM SCT250=

USA.gov is the U.S. government's official web portal to all federal, state and local government web resources and services.